Terminal Aerodrome Forecast
Issued by NWS

Home | Current Version | Previous Version | Text Only | Print | Product List | Glossary On
Versions: 1 2 3 4 5 6 7 8 9 10 11 12 13 14 15 16 17
728
FTUS41 KCLE 202324
TAFFDY
TAF
KFDY 202324Z 2100/2124 14007KT P6SM OVC250
     FM210900 14004KT P6SM OVC200
      TEMPO 2111/2114 5SM BR
     FM211400 20010KT P6SM OVC045
      TEMPO 2118/2121 6SM -SHRA BR OVC035
     FM212100 24010KT 6SM -SHRA BR OVC035=

USA.gov is the U.S. government's official web portal to all federal, state and local government web resources and services.